CheckWX is a tool to help pilots better visualize weather data.  It is not intended as a substitute for an official pre-flight weather briefing.

03:47:44 UTC

KBGR METAR
Bangor International Airport
Bangor, Maine, USA
Current

55 mins ago

KBGR 270253Z 19006KT 10SM FEW110 14/13 A2981 RMK AO2 SLP093 T01390128 51008 $
Observed
May-27 @ 02:53 UTC
Wind
  • 190° at 6 KTS
Visibility
10 SM
Flight Rules
VFR
Cloud Levels
  • Few at 11,000' AGL
Temperature
14°C / 57°F
Dewpoint
13°C / 55°F
Humidity
94%
Altimeter
29.81" Hg
Pressure
1009.52 hPa
Previous

2 hours ago

KBGR 270153Z 20008KT 10SM OVC110 16/13 A2981 RMK AO2 SLP093 BINOVC T01560133 $
Observed
May-27 @ 01:53 UTC
Wind
  • 200° at 8 KTS
Visibility
10 SM
Flight Rules
VFR
Cloud Levels
  • Overcast at 11,000' AGL
Temperature
16°C / 61°F
Dewpoint
13°C / 55°F
Humidity
83%
Altimeter
29.81" Hg
Pressure
1009.52 hPa
Previous

3 hours ago

KBGR 270053Z 19005KT 10SM FEW060 BKN110 17/14 A2980 RMK AO2 SLP091 T01720144 $
Observed
May-27 @ 00:53 UTC
Wind
  • 190° at 5 KTS
Visibility
10 SM
Flight Rules
VFR
Cloud Levels
  • Few at 6,000' AGL
  • Broken at 11,000' AGL
Temperature
17°C / 63°F
Dewpoint
14°C / 57°F
Humidity
83%
Altimeter
29.8" Hg
Pressure
1009.12 hPa